Skip Navigation Links Skip Navigation Links

Current Weather

Baton Rouge Metropolitan, Ryan Field, Baton Rouge, La.

For information only: do not use for flight planning or navigation.
Latest weather
Observation time Friday, April 3, 2020 10:53 AM CDT
Local time Friday, April 3, 2020 11:00 AM CDT
Flight conditions Visual Meteorological Conditions
Winds
Wind direction variable
Wind speed 7 mph
Visibility 10 mi.
Sky condition
Ceiling unlimited
Sky clear
Temperature 74°F
Dewpoint 56°F
Altimeter 30.04 in.Hg
Derived measurements
Relative humidity 53%
Density altitude 1113 ft.
Sea-level pressure 30.04 in.Hg
Remarks
Automated weather observing station with precipitation discriminator.
METAR KBTR 031553Z VRB06KT 10SM CLR 23/13 A3004 RMK AO2 SLP173 T02330133

Settings

Location code

InnerDrive.Weather 4.0.6770.0 Release CLR 4.0.30319.42000
Copyright ©2018 Inner Drive Technology. All rights reserved. Portions Copyright ©1986-2018 David Braverman.

Find weather

Site navigation


Skip Navigation Links

Place info

Page info

PayPal - The safer, easier way to pay online!

Return home.

Copyright ©2020 Inner Drive Technology. Purveyors of fine, hand-crafted computer software. Page printed 2020-04-03T16:00:24 UTC.